Time;durP1;ratioP1;P1;durP2;ratioP2;P2;SDS_P1;SDS_P2;PMS_P1;PMS_P2;Temp;Humidity;BMP_temperature;BMP_pressure;BME280_temperature;BME280_humidity;BME280_pressure;Samples;Min_cycle;Max_cycle;Signal;HPM_P1;HPM_P2
2022/05/18 00:00:56;;;;;;;4.20;4.00;;;17.00;99.90;;;;;;5049830;28;20234;-46
2022/05/18 00:03:25;;;;;;;5.13;4.77;;;16.90;99.90;;;;;;5049903;28;20259;-46
2022/05/18 00:05:52;;;;;;;4.73;4.53;;;16.90;99.90;;;;;;5051824;28;20248;-46
2022/05/18 00:08:19;;;;;;;5.10;4.63;;;16.90;99.90;;;;;;5051519;28;20260;-46
2022/05/18 00:10:49;;;;;;;5.10;4.57;;;16.90;99.90;;;;;;5048661;28;20222;-46
2022/05/18 00:13:18;;;;;;;4.10;3.80;;;16.90;99.90;;;;;;5049636;28;20304;-46
2022/05/18 00:15:46;;;;;;;3.83;3.63;;;16.80;99.90;;;;;;5049986;28;20202;-46
2022/05/18 00:18:13;;;;;;;4.20;4.00;;;16.80;99.90;;;;;;5050251;28;20201;-46
2022/05/18 00:20:40;;;;;;;4.90;4.50;;;16.70;99.90;;;;;;5045920;28;20696;-46
2022/05/18 00:23:07;;;;;;;6.33;5.07;;;16.70;99.90;;;;;;5051538;28;20659;-46
2022/05/18 00:25:37;;;;;;;4.13;3.93;;;16.70;99.90;;;;;;5050443;28;20808;-46
2022/05/18 00:28:05;;;;;;;4.83;4.53;;;16.70;99.90;;;;;;5049090;28;20210;-46
2022/05/18 00:30:34;;;;;;;5.27;4.97;;;16.70;99.90;;;;;;5051178;28;20222;-46
2022/05/18 00:33:04;;;;;;;4.80;4.50;;;16.70;99.90;;;;;;5050409;28;20812;-46
2022/05/18 00:35:34;;;;;;;5.67;5.17;;;16.70;99.90;;;;;;5051318;28;20613;-46
2022/05/18 00:38:02;;;;;;;5.70;5.20;;;16.70;99.90;;;;;;5050259;28;20202;-46
2022/05/18 00:40:29;;;;;;;4.53;4.33;;;16.70;99.90;;;;;;5048795;28;20229;-46
2022/05/18 00:42:56;;;;;;;6.43;5.23;;;16.70;99.90;;;;;;5048317;28;20210;-46
2022/05/18 00:45:24;;;;;;;4.57;4.27;;;16.70;99.90;;;;;;5045008;28;20197;-46
2022/05/18 00:47:52;;;;;;;5.10;4.70;;;16.60;99.90;;;;;;5051247;28;20202;-46
2022/05/18 00:50:23;;;;;;;5.73;5.30;;;16.60;99.90;;;;;;5049636;28;20194;-46
2022/05/18 00:52:55;;;;;;;5.40;5.03;;;16.60;99.90;;;;;;5050920;28;20771;-46
2022/05/18 00:55:26;;;;;;;4.57;4.27;;;16.50;99.90;;;;;;5050889;28;20287;-46
2022/05/18 00:58:00;;;;;;;6.77;5.03;;;16.50;99.90;;;;;;5048351;28;20267;-46
2022/05/18 01:00:28;;;;;;;5.53;5.03;;;16.40;99.90;;;;;;5047468;28;20715;-46
2022/05/18 01:03:00;;;;;;;5.10;4.80;;;16.30;99.90;;;;;;5028827;28;20194;-46
2022/05/18 01:05:32;;;;;;;6.70;6.10;;;16.30;99.90;;;;;;5021123;28;20337;-46
2022/05/18 01:08:00;;;;;;;5.23;4.97;;;16.20;99.90;;;;;;5031069;28;20206;-46
2022/05/18 01:10:29;;;;;;;5.57;5.17;;;16.10;99.90;;;;;;5031041;28;20210;-46
2022/05/18 01:12:56;;;;;;;4.63;4.23;;;16.10;99.90;;;;;;5031151;28;20224;-46
2022/05/18 01:15:24;;;;;;;5.77;5.37;;;16.00;99.90;;;;;;5023419;28;20202;-46
2022/05/18 01:17:56;;;;;;;5.00;4.70;;;16.00;99.90;;;;;;5029971;28;20210;-46
2022/05/18 01:20:29;;;;;;;4.87;4.63;;;16.00;99.90;;;;;;5029837;28;20248;-46
2022/05/18 01:23:17;;;;;;;5.13;4.73;;;15.90;99.90;;;;;;5029178;28;20198;-46
2022/05/18 01:26:00;;;;;;;5.07;4.77;;;15.90;99.90;;;;;;5023193;28;20203;-46
2022/05/18 01:28:34;;;;;;;5.70;4.03;;;15.80;99.90;;;;;;5028471;28;20209;-46
2022/05/18 01:31:04;;;;;;;7.97;6.17;;;15.80;99.90;;;;;;5029219;28;20218;-46
2022/05/18 01:33:32;;;;;;;4.90;4.70;;;15.80;99.90;;;;;;5030009;28;20695;-46
2022/05/18 01:35:59;;;;;;;5.37;5.00;;;15.80;99.90;;;;;;5029485;28;20260;-46
2022/05/18 01:38:27;;;;;;;5.50;5.17;;;15.70;99.90;;;;;;5030541;28;20669;-46
2022/05/18 01:41:00;;;;;;;6.03;5.53;;;15.70;99.90;;;;;;5024876;28;20226;-46
2022/05/18 01:43:31;;;;;;;5.77;5.37;;;15.60;99.90;;;;;;5031019;28;20202;-46
2022/05/18 01:46:01;;;;;;;5.70;5.30;;;15.60;99.90;;;;;;5030708;28;20203;-46
2022/05/18 01:48:31;;;;;;;5.17;4.90;;;15.60;99.90;;;;;;5028608;28;20203;-46
2022/05/18 01:50:59;;;;;;;7.27;5.27;;;15.50;99.90;;;;;;5030727;28;20210;-46
2022/05/18 01:53:27;;;;;;;4.87;4.47;;;15.50;99.90;;;;;;5028297;28;20686;-46
2022/05/18 01:55:54;;;;;;;5.33;4.97;;;15.50;99.90;;;;;;5028819;28;20198;-46
2022/05/18 01:58:22;;;;;;;5.47;5.07;;;15.50;99.90;;;;;;5029825;28;20210;-46
2022/05/18 02:00:51;;;;;;;6.20;5.87;;;15.40;99.90;;;;;;5039321;28;20294;-47
2022/05/18 02:03:20;;;;;;;5.37;5.07;;;15.40;99.90;;;;;;5050371;28;20206;-46
2022/05/18 02:05:47;;;;;;;4.93;4.67;;;15.40;99.90;;;;;;5052046;28;20717;-46
2022/05/18 02:08:16;;;;;;;5.47;5.17;;;15.40;99.90;;;;;;5054413;28;20817;-46
2022/05/18 02:10:44;;;;;;;5.27;4.97;;;15.40;99.90;;;;;;5053615;28;20213;-46
2022/05/18 02:13:11;;;;;;;6.47;5.97;;;15.40;99.90;;;;;;5043867;28;20641;-46
2022/05/18 02:15:38;;;;;;;5.90;5.40;;;15.40;99.90;;;;;;5053917;28;20659;-46
2022/05/18 02:18:06;;;;;;;6.37;5.47;;;15.40;99.90;;;;;;5051763;28;20263;-46
2022/05/18 02:20:34;;;;;;;5.40;5.13;;;15.50;99.90;;;;;;5052279;28;20217;-46
2022/05/18 02:23:01;;;;;;;6.17;5.77;;;15.50;99.90;;;;;;5054198;28;20280;-46
2022/05/18 02:25:28;;;;;;;6.13;5.60;;;15.40;99.90;;;;;;5051423;28;20251;-46
2022/05/18 02:27:56;;;;;;;6.63;6.03;;;15.40;99.90;;;;;;5054582;28;20327;-46
2022/05/18 02:30:23;;;;;;;6.23;5.83;;;15.30;99.90;;;;;;5051286;28;20259;-46
2022/05/18 02:32:50;;;;;;;7.33;5.47;;;15.40;99.90;;;;;;5052734;28;20567;-46
2022/05/18 02:35:19;;;;;;;5.30;5.00;;;15.40;99.90;;;;;;5052404;28;20276;-46
2022/05/18 02:37:46;;;;;;;5.73;5.43;;;15.40;99.90;;;;;;5052314;28;20201;-46
2022/05/18 02:40:13;;;;;;;5.63;5.23;;;15.40;99.90;;;;;;5051665;28;20278;-46
2022/05/18 02:42:41;;;;;;;6.80;5.70;;;15.40;99.90;;;;;;5052575;28;20656;-46
2022/05/18 02:45:09;;;;;;;6.57;6.17;;;15.40;99.90;;;;;;5053811;28;20280;-46
2022/05/18 02:47:36;;;;;;;5.20;4.70;;;15.40;99.90;;;;;;5053425;28;20202;-46
2022/05/18 02:50:03;;;;;;;5.43;5.13;;;15.30;99.90;;;;;;5052276;28;20206;-46
2022/05/18 02:52:32;;;;;;;5.33;5.03;;;15.30;99.90;;;;;;5052788;28;20629;-46
2022/05/18 02:57:44;;;;;;;4.60;4.37;;;15.30;99.90;;;;;;5052165;28;20212;-46
2022/05/18 03:00:14;;;;;;;6.10;4.83;;;15.20;99.90;;;;;;5047113;28;20396;-46
2022/05/18 03:02:41;;;;;;;6.03;4.53;;;15.20;99.90;;;;;;5062183;28;20208;-46
2022/05/18 03:05:08;;;;;;;5.70;5.23;;;15.20;99.90;;;;;;5061993;28;20198;-46
2022/05/18 03:07:37;;;;;;;4.73;4.43;;;15.20;99.90;;;;;;5061098;28;20260;-46
2022/05/18 03:10:05;;;;;;;5.00;4.70;;;15.20;99.90;;;;;;5054165;28;20237;-46
2022/05/18 03:12:32;;;;;;;5.17;4.67;;;15.20;99.90;;;;;;5061788;28;20200;-46
2022/05/18 03:14:59;;;;;;;5.00;4.47;;;15.20;99.90;;;;;;5065341;28;20205;-46
2022/05/18 03:17:26;;;;;;;5.63;5.07;;;15.20;99.90;;;;;;5063396;28;20255;-46
2022/05/18 03:19:53;;;;;;;5.87;5.33;;;15.10;99.90;;;;;;5065425;28;20204;-46
2022/05/18 03:25:07;;;;;;;6.17;5.60;;;15.20;99.90;;;;;;5062697;28;20308;-45
2022/05/18 03:27:34;;;;;;;5.87;5.37;;;15.10;99.90;;;;;;5065159;28;20274;-46
2022/05/18 03:30:01;;;;;;;6.43;5.93;;;15.10;99.90;;;;;;5062571;28;20259;-46
2022/05/18 03:32:28;;;;;;;5.77;5.47;;;15.00;99.90;;;;;;5053208;28;20214;-46
2022/05/18 03:34:55;;;;;;;6.07;5.77;;;15.00;99.90;;;;;;5056379;28;20606;-46
2022/05/18 03:37:22;;;;;;;6.47;5.97;;;15.00;99.90;;;;;;5071331;23;20780;-51
2022/05/18 03:39:49;;;;;;;5.03;4.77;;;14.90;99.90;;;;;;5052619;28;20243;-51
2022/05/18 03:42:17;;;;;;;5.23;4.97;;;14.90;99.90;;;;;;5052580;28;20252;-51
2022/05/18 03:44:44;;;;;;;6.83;5.60;;;14.90;99.90;;;;;;5052790;28;20202;-51
2022/05/18 03:47:11;;;;;;;5.83;5.40;;;14.90;99.90;;;;;;5051940;28;20218;-51
2022/05/18 03:49:38;;;;;;;7.03;6.43;;;15.00;99.90;;;;;;5050845;28;20263;-51
2022/05/18 03:52:05;;;;;;;7.00;6.40;;;15.00;99.90;;;;;;5041108;28;20252;-51
2022/05/18 03:54:33;;;;;;;5.80;5.40;;;14.90;99.90;;;;;;5052268;28;20276;-51
2022/05/18 03:57:00;;;;;;;6.63;6.13;;;14.90;99.90;;;;;;5052351;28;20300;-51
2022/05/18 03:59:29;;;;;;;8.00;7.20;;;15.00;99.90;;;;;;5052549;28;20675;-52
2022/05/18 04:01:56;;;;;;;6.90;6.43;;;15.00;99.90;;;;;;5050431;28;20227;-51
2022/05/18 04:04:23;;;;;;;7.13;6.53;;;15.00;99.90;;;;;;5051735;28;20206;-51
2022/05/18 04:06:50;;;;;;;7.80;6.27;;;14.90;99.90;;;;;;5043571;28;20217;-51
2022/05/18 04:09:19;;;;;;;7.97;6.27;;;15.00;99.90;;;;;;5056239;28;20264;-51
2022/05/18 04:11:50;;;;;;;7.43;6.80;;;15.00;99.90;;;;;;5041882;28;20188;-51
2022/05/18 04:14:17;;;;;;;7.50;6.77;;;15.00;99.90;;;;;;5050694;28;20206;-51
2022/05/18 04:16:49;;;;;;;6.47;5.97;;;15.00;99.90;;;;;;5041646;28;20291;-51
2022/05/18 04:19:16;;;;;;;6.63;6.13;;;15.00;99.90;;;;;;5041098;28;20205;-51
2022/05/18 04:21:43;;;;;;;7.67;6.37;;;15.10;99.90;;;;;;5036972;28;20222;-51
2022/05/18 04:24:10;;;;;;;6.90;6.40;;;15.10;99.90;;;;;;5040209;28;20198;-51
2022/05/18 04:26:37;;;;;;;7.33;6.80;;;15.20;99.90;;;;;;5032696;28;20588;-51
2022/05/18 04:29:04;;;;;;;6.00;5.50;;;15.20;99.90;;;;;;5032604;28;20249;-51
2022/05/18 04:31:31;;;;;;;7.57;6.97;;;15.20;99.90;;;;;;5035216;28;20664;-51
2022/05/18 04:33:59;;;;;;;9.20;8.20;;;15.30;99.90;;;;;;5040203;28;20641;-51
2022/05/18 04:36:26;;;;;;;6.73;6.13;;;15.30;99.90;;;;;;5036825;28;20218;-52
2022/05/18 04:38:53;;;;;;;6.23;5.70;;;15.40;99.90;;;;;;5032608;28;20210;-51
2022/05/18 04:41:21;;;;;;;7.37;6.70;;;15.40;99.90;;;;;;5042710;28;20226;-52
2022/05/18 04:43:48;;;;;;;6.87;6.27;;;15.60;99.90;;;;;;5039732;28;20199;-51
2022/05/18 04:46:15;;;;;;;6.63;6.13;;;15.80;99.90;;;;;;5037243;28;20207;-51
2022/05/18 04:48:45;;;;;;;7.03;6.33;;;16.00;99.90;;;;;;5035144;28;20202;-51
2022/05/18 04:51:13;;;;;;;6.70;6.20;;;16.30;99.90;;;;;;5036649;28;20208;-52
2022/05/18 04:53:40;;;;;;;8.30;5.87;;;16.70;99.90;;;;;;5041968;28;20198;-52
2022/05/18 04:56:07;;;;;;;6.80;6.10;;;17.10;99.90;;;;;;5039203;28;20198;-52
2022/05/18 04:58:35;;;;;;;6.43;5.90;;;17.80;99.90;;;;;;5031668;28;20203;-52
2022/05/18 05:01:04;;;;;;;6.73;6.33;;;18.60;99.90;;;;;;5038643;28;20217;-52
2022/05/18 05:03:31;;;;;;;6.20;5.80;;;19.20;99.90;;;;;;5038398;28;20203;-52
2022/05/18 05:05:58;;;;;;;6.13;5.20;;;19.90;99.90;;;;;;5047177;28;20209;-51
2022/05/18 05:08:27;;;;;;;5.43;5.00;;;20.40;99.90;;;;;;5043559;28;20221;-52
2022/05/18 05:10:54;;;;;;;5.57;4.43;;;20.70;99.90;;;;;;5042203;28;20725;-52
2022/05/18 05:13:21;;;;;;;8.70;5.37;;;21.10;99.90;;;;;;5035040;28;20203;-52
2022/05/18 05:15:51;;;;;;;4.83;4.40;;;21.70;99.90;;;;;;5040942;28;20201;-52
2022/05/18 05:18:18;;;;;;;8.97;5.50;;;21.70;99.90;;;;;;5037140;28;20786;-52
2022/05/18 05:20:45;;;;;;;10.00;5.30;;;21.80;99.90;;;;;;5031338;28;20627;-52
2022/05/18 05:23:12;;;;;;;5.50;5.13;;;21.90;99.90;;;;;;5036153;28;20252;-52
2022/05/18 05:25:40;;;;;;;4.90;4.67;;;22.40;99.90;;;;;;5040418;28;20207;-52
2022/05/18 05:28:08;;;;;;;7.50;4.40;;;22.90;99.90;;;;;;5035227;28;20213;-52
2022/05/18 05:30:37;;;;;;;5.67;5.37;;;23.40;99.90;;;;;;5038461;28;20285;-52
2022/05/18 05:33:04;;;;;;;4.23;4.03;;;23.60;99.90;;;;;;5042016;28;20194;-52
2022/05/18 05:35:31;;;;;;;5.80;5.10;;;23.70;99.90;;;;;;5043170;28;20220;-53
2022/05/18 05:37:58;;;;;;;4.77;4.47;;;23.80;99.90;;;;;;5049380;28;20642;-52
2022/05/18 05:40:25;;;;;;;6.03;5.37;;;23.90;99.90;;;;;;5046085;28;20206;-53
2022/05/18 05:42:53;;;;;;;4.53;4.23;;;24.40;99.90;;;;;;5038550;28;20210;-53
2022/05/18 05:45:20;;;;;;;4.73;4.43;;;25.10;99.90;;;;;;5037546;28;20253;-53
2022/05/18 05:47:47;;;;;;;5.43;4.77;;;25.40;99.90;;;;;;5043886;28;20275;-53
2022/05/18 05:50:15;;;;;;;4.80;4.50;;;25.40;99.90;;;;;;5044633;28;20201;-52
2022/05/18 05:52:42;;;;;;;5.33;4.97;;;26.00;99.90;;;;;;5052328;28;20198;-53
2022/05/18 05:55:10;;;;;;;5.30;4.07;;;26.30;99.90;;;;;;5055424;28;20198;-52
2022/05/18 05:57:37;;;;;;;4.83;4.43;;;26.40;99.90;;;;;;5057001;28;20222;-53
2022/05/18 06:00:07;;;;;;;9.27;4.67;;;26.30;99.90;;;;;;5054295;28;20616;-53
2022/05/18 06:02:34;;;;;;;4.30;4.00;;;26.40;99.90;;;;;;5055315;28;20226;-53
2022/05/18 06:05:03;;;;;;;4.17;3.77;;;26.50;99.90;;;;;;5057482;28;20300;-53
2022/05/18 06:07:30;;;;;;;6.07;4.88;;;26.90;99.90;;;;;;5056305;28;20350;-53
2022/05/18 06:09:57;;;;;;;5.87;5.37;;;26.90;99.90;;;;;;5055556;28;20320;-53
2022/05/18 06:12:25;;;;;;;6.70;4.82;;;27.10;99.90;;;;;;5052364;28;20197;-53
2022/05/18 06:14:52;;;;;;;4.38;4.15;;;27.50;99.90;;;;;;5059118;28;20201;-53
2022/05/18 06:17:21;;;;;;;4.70;4.40;;;27.80;99.90;;;;;;5055035;28;20225;-53
2022/05/18 06:19:48;;;;;;;4.78;4.55;;;28.20;99.90;;;;;;5055410;28;20255;-53
2022/05/18 06:22:15;;;;;;;4.75;4.35;;;28.50;99.90;;;;;;5050220;28;20279;-53
2022/05/18 06:24:43;;;;;;;4.05;3.63;;;28.80;99.90;;;;;;5050630;28;20198;-52
2022/05/18 06:27:10;;;;;;;4.25;3.95;;;28.40;99.90;;;;;;5046750;28;20229;-52
2022/05/18 06:29:40;;;;;;;4.25;3.72;;;28.70;99.90;;;;;;5050522;28;20201;-52
2022/05/18 06:32:08;;;;;;;4.03;3.80;;;28.90;99.90;;;;;;5049160;28;20204;-52
2022/05/18 06:34:36;;;;;;;5.38;3.85;;;29.10;99.90;;;;;;5039716;28;20190;-52
2022/05/18 06:37:06;;;;;;;3.80;3.50;;;29.30;99.90;;;;;;5047003;28;20237;-52
2022/05/18 06:39:33;;;;;;;3.65;3.35;;;29.60;99.90;;;;;;5044934;28;20198;-52
2022/05/18 06:42:01;;;;;;;3.78;3.58;;;29.50;99.90;;;;;;5047443;28;20232;-53
2022/05/18 06:44:29;;;;;;;4.57;3.38;;;29.00;99.40;;;;;;5051442;28;20233;-52
2022/05/18 06:47:00;;;;;;;4.50;4.05;;;28.40;99.90;;;;;;5040419;28;20222;-53
2022/05/18 06:49:28;;;;;;;3.28;3.17;;;28.40;99.90;;;;;;5033809;28;20605;-53
2022/05/18 06:51:59;;;;;;;3.63;3.35;;;28.80;99.40;;;;;;5033540;28;20199;-52
2022/05/18 06:54:26;;;;;;;4.57;4.18;;;29.30;99.40;;;;;;5034099;28;20194;-53
2022/05/18 06:56:57;;;;;;;3.22;2.92;;;29.00;98.70;;;;;;5041023;28;20226;-53
2022/05/18 06:59:23;;;;;;;3.45;3.15;;;29.70;98.70;;;;;;5043700;28;20327;-53
2022/05/18 07:01:51;;;;;;;5.75;3.90;;;29.90;98.60;;;;;;5041307;28;20292;-53
2022/05/18 07:04:18;;;;;;;3.50;3.17;;;29.50;96.80;;;;;;5041582;28;20291;-53
2022/05/18 07:06:46;;;;;;;3.20;2.97;;;30.00;97.30;;;;;;5040890;28;20233;-53
2022/05/18 07:09:16;;;;;;;5.30;3.30;;;29.80;96.80;;;;;;5041782;28;20263;-54
2022/05/18 07:11:46;;;;;;;3.40;3.10;;;30.00;96.70;;;;;;5040403;28;20248;-53
2022/05/18 07:14:13;;;;;;;3.80;2.72;;;29.80;96.40;;;;;;5040402;28;20203;-53
2022/05/18 07:16:42;;;;;;;3.40;3.30;;;29.70;96.70;;;;;;5036304;28;20222;-53
2022/05/18 07:19:10;;;;;;;3.90;3.55;;;29.80;95.40;;;;;;5042213;28;20198;-53
2022/05/18 07:21:37;;;;;;;3.25;3.15;;;29.70;96.60;;;;;;5040548;28;20199;-53
2022/05/18 07:24:06;;;;;;;4.00;2.75;;;29.80;96.00;;;;;;5040015;28;20267;-54
2022/05/18 07:26:35;;;;;;;3.80;3.47;;;30.30;95.40;;;;;;5042548;28;20221;-53
2022/05/18 07:29:03;;;;;;;4.05;3.85;;;30.50;94.60;;;;;;5041246;28;20198;-53
2022/05/18 07:32:08;;;;;;;7.78;3.15;;;30.80;93.90;;;;;;5046303;28;20722;-53
2022/05/18 07:34:17;;;;;;;2.85;2.55;;;31.30;92.90;;;;;;5041157;28;20573;-53
2022/05/18 07:36:44;;;;;;;4.75;4.15;;;31.80;93.20;;;;;;5043589;28;20299;-53
2022/05/18 07:39:12;;;;;;;3.88;3.25;;;31.40;91.80;;;;;;5049200;28;20656;-53
2022/05/18 07:41:41;;;;;;;4.47;3.90;;;31.00;91.70;;;;;;5041824;28;20228;-53
2022/05/18 07:44:08;;;;;;;3.20;3.00;;;30.80;92.80;;;;;;5044359;28;20198;-53
2022/05/18 07:46:35;;;;;;;3.25;2.60;;;31.20;92.60;;;;;;5038797;28;20307;-53
2022/05/18 07:49:03;;;;;;;3.67;3.38;;;31.30;93.60;;;;;;5040776;28;20267;-53
2022/05/18 07:51:30;;;;;;;3.58;3.28;;;31.10;93.20;;;;;;5041832;28;20283;-53
2022/05/18 07:53:57;;;;;;;4.30;3.15;;;31.30;93.50;;;;;;5039456;28;20273;-53
2022/05/18 07:56:24;;;;;;;4.95;3.40;;;31.20;93.20;;;;;;5037143;28;20272;-54
2022/05/18 07:58:53;;;;;;;3.55;3.25;;;31.50;94.00;;;;;;5040065;28;20273;-54
2022/05/18 08:01:20;;;;;;;4.43;4.13;;;32.10;92.90;;;;;;5043533;28;20634;-53
2022/05/18 08:03:48;;;;;;;5.00;3.85;;;32.30;93.40;;;;;;5045099;28;20267;-54
2022/05/18 08:06:15;;;;;;;3.58;3.30;;;32.40;94.00;;;;;;5043294;28;20206;-53
2022/05/18 08:08:42;;;;;;;3.80;3.50;;;32.20;93.60;;;;;;5042356;28;20198;-54
2022/05/18 08:16:40;;;;;;;3.90;3.53;;;32.00;93.70;;;;;;5037947;28;20295;-53
2022/05/18 08:19:10;;;;;;;4.50;4.18;;;31.60;93.30;;;;;;5042819;28;20225;-54
2022/05/18 08:21:37;;;;;;;3.83;3.53;;;31.00;94.70;;;;;;5043622;28;20212;-54
2022/05/18 08:24:06;;;;;;;7.72;4.03;;;31.30;94.50;;;;;;5042521;28;20204;-54
2022/05/18 08:26:33;;;;;;;4.93;4.00;;;30.90;92.50;;;;;;5040201;28;20352;-54
2022/05/18 08:29:03;;;;;;;3.92;3.53;;;31.20;95.30;;;;;;5041053;28;20264;-54
2022/05/18 08:31:30;;;;;;;3.17;3.00;;;31.50;92.30;;;;;;5041211;28;20197;-54
2022/05/18 08:33:57;;;;;;;3.88;3.25;;;31.80;93.50;;;;;;5038736;28;20459;-54
2022/05/18 08:36:26;;;;;;;5.45;3.38;;;32.40;92.20;;;;;;5045556;28;20292;-53
2022/05/18 08:38:54;;;;;;;3.10;3.00;;;32.20;92.30;;;;;;5039962;28;20206;-53
2022/05/18 08:41:25;;;;;;;6.90;2.85;;;31.80;91.50;;;;;;5037322;28;20202;-53
2022/05/18 08:43:58;;;;;;;4.10;3.10;;;31.80;92.90;;;;;;5040586;28;20229;-53
2022/05/18 08:46:39;;;;;;;3.92;3.63;;;31.70;93.30;;;;;;5040503;28;20218;-53
2022/05/18 08:49:20;;;;;;;7.72;3.58;;;31.70;94.00;;;;;;5039430;28;20210;-53
2022/05/18 08:52:08;;;;;;;41.78;8.70;;;31.70;91.20;;;;;;5038354;28;20679;-53
2022/05/18 08:54:47;;;;;;;6.57;3.30;;;32.10;92.70;;;;;;5040691;28;20202;-53
2022/05/18 08:57:19;;;;;;;6.60;2.97;;;32.20;88.50;;;;;;5041143;28;20240;-53
2022/05/18 08:59:50;;;;;;;2.97;2.33;;;32.70;89.40;;;;;;5039964;28;20212;-54
2022/05/18 09:02:24;;;;;;;52.58;8.68;;;32.60;88.60;;;;;;5040907;28;20202;-53
2022/05/18 09:04:55;;;;;;;71.72;15.25;;;32.70;91.30;;;;;;5039678;28;20291;-53
2022/05/18 09:07:27;;;;;;;17.30;4.85;;;32.40;91.00;;;;;;5050372;28;20214;-54
2022/05/18 09:10:16;;;;;;;14.70;4.22;;;32.20;91.00;;;;;;5050957;28;20260;-53
2022/05/18 09:12:45;;;;;;;3.97;2.95;;;32.30;92.60;;;;;;5035012;28;20218;-54
2022/05/18 09:15:14;;;;;;;2.80;2.60;;;32.20;89.50;;;;;;5039226;28;20201;-53
2022/05/18 09:17:53;;;;;;;2.50;2.40;;;32.40;90.20;;;;;;5040613;28;20218;-54
2022/05/18 09:20:24;;;;;;;4.10;2.65;;;32.50;91.80;;;;;;5041718;28;20228;-53
2022/05/18 09:23:20;;;;;;;19.20;5.18;;;33.00;92.00;;;;;;5040266;28;20664;-53
2022/05/18 09:26:02;;;;;;;8.27;3.97;;;33.10;90.40;;;;;;5036646;28;20202;-54
2022/05/18 09:28:40;;;;;;;3.08;2.90;;;32.80;90.80;;;;;;5042505;28;20212;-54
2022/05/18 09:31:19;;;;;;;4.30;3.92;;;32.90;90.80;;;;;;5045091;28;20202;-54
2022/05/18 09:34:01;;;;;;;5.57;3.97;;;33.30;92.60;;;;;;5037155;28;20214;-53
2022/05/18 09:36:54;;;;;;;4.93;4.68;;;33.20;91.10;;;;;;5038498;28;20331;-53
2022/05/18 09:39:27;;;;;;;7.20;6.60;;;33.00;91.20;;;;;;5036947;28;20456;-53
2022/05/18 09:41:59;;;;;;;6.78;6.38;;;31.60;93.10;;;;;;5039382;28;20371;-53
2022/05/18 09:44:36;;;;;;;6.55;6.07;;;31.90;95.50;;;;;;5038597;28;20205;-52
2022/05/18 09:47:05;;;;;;;8.02;7.40;;;30.80;96.00;;;;;;5049254;22;20580;-47
2022/05/18 09:49:38;;;;;;;5.53;5.25;;;30.90;95.40;;;;;;5021534;28;20264;-47
2022/05/18 09:52:08;;;;;;;6.93;6.38;;;30.80;96.70;;;;;;5026980;28;20323;-47
2022/05/18 09:54:37;;;;;;;7.97;6.57;;;30.90;94.70;;;;;;5021192;28;20231;-47
2022/05/18 09:57:13;;;;;;;5.55;4.97;;;29.90;97.10;;;;;;5020158;28;20226;-47
2022/05/18 09:59:45;;;;;;;4.88;4.43;;;30.30;95.70;;;;;;5020285;28;20202;-47
2022/05/18 10:07:53;;;;;;;4.70;4.50;;;30.90;93.10;;;;;;5020836;28;20690;-47
2022/05/18 10:10:25;;;;;;;5.15;4.50;;;31.60;92.20;;;;;;5026805;28;20206;-47
2022/05/18 10:13:03;;;;;;;3.55;3.33;;;31.20;94.10;;;;;;5023301;28;20230;-47
2022/05/18 10:15:37;;;;;;;7.72;4.07;;;31.80;93.40;;;;;;5026863;28;20222;-47
2022/05/18 10:18:28;;;;;;;4.40;4.20;;;32.10;91.40;;;;;;5027565;28;20679;-47
2022/05/18 10:21:11;;;;;;;3.80;3.33;;;32.10;90.90;;;;;;5030437;28;20643;-47
2022/05/18 10:23:45;;;;;;;5.05;4.70;;;32.70;90.50;;;;;;5033586;28;20285;-47
2022/05/18 10:26:23;;;;;;;4.45;4.25;;;32.20;92.80;;;;;;5024475;28;20718;-47
2022/05/18 10:28:56;;;;;;;4.03;3.83;;;32.00;91.70;;;;;;5031489;28;20264;-47
2022/05/18 10:31:27;;;;;;;3.88;3.58;;;32.10;92.20;;;;;;5028444;28;20221;-47
2022/05/18 10:34:11;;;;;;;3.83;3.63;;;32.20;91.80;;;;;;5021128;28;20226;-47
2022/05/18 10:36:49;;;;;;;3.28;3.08;;;32.20;90.90;;;;;;5022267;28;20268;-47
2022/05/18 10:39:33;;;;;;;4.30;3.90;;;32.70;90.80;;;;;;5023112;28;20205;-47
2022/05/18 10:42:09;;;;;;;4.15;3.95;;;33.00;91.90;;;;;;5023135;28;20194;-47
2022/05/18 10:44:37;;;;;;;4.35;3.33;;;32.80;91.40;;;;;;5024662;28;20197;-47
2022/05/18 10:47:18;;;;;;;4.68;4.30;;;32.40;91.60;;;;;;5024763;28;20221;-47
2022/05/18 10:49:46;;;;;;;3.45;3.30;;;32.20;93.00;;;;;;5024439;28;20202;-47
2022/05/18 10:52:17;;;;;;;4.97;3.35;;;31.90;94.00;;;;;;5024300;28;20224;-47
2022/05/18 10:54:55;;;;;;;3.70;3.50;;;31.90;90.90;;;;;;5032700;28;20227;-47
2022/05/18 10:57:32;;;;;;;3.75;3.47;;;31.70;90.20;;;;;;5023995;28;20680;-47
2022/05/18 11:00:08;;;;;;;3.95;3.72;;;31.40;93.00;;;;;;5021583;28;20256;-47
2022/05/18 11:02:44;;;;;;;4.95;4.10;;;30.70;91.80;;;;;;5032746;28;20664;-47
2022/05/18 11:05:20;;;;;;;3.70;3.55;;;30.00;93.60;;;;;;5025492;28;20244;-47
2022/05/18 11:07:50;;;;;;;4.28;3.97;;;29.40;96.20;;;;;;5032903;28;20264;-47
2022/05/18 11:10:18;;;;;;;5.60;3.90;;;29.30;95.60;;;;;;5031763;28;20202;-46
2022/05/18 11:12:51;;;;;;;4.10;3.75;;;29.30;95.40;;;;;;5032008;28;20268;-46
2022/05/18 11:15:27;;;;;;;4.43;4.07;;;28.80;96.70;;;;;;5033836;28;20305;-47
2022/05/18 11:18:07;;;;;;;4.32;3.88;;;28.50;96.00;;;;;;5031717;28;20260;-47
2022/05/18 11:20:45;;;;;;;4.25;4.05;;;28.80;96.00;;;;;;5032599;28;20268;-47
2022/05/18 11:23:31;;;;;;;5.22;3.25;;;28.80;95.70;;;;;;5025698;28;20187;-47
2022/05/18 11:26:09;;;;;;;3.22;3.03;;;29.10;96.90;;;;;;5032798;28;20230;-46
2022/05/18 11:28:45;;;;;;;3.85;3.63;;;29.10;92.70;;;;;;5031450;28;20557;-46
2022/05/18 11:31:35;;;;;;;3.58;3.33;;;29.20;95.40;;;;;;5026229;28;20202;-46
2022/05/18 11:34:10;;;;;;;3.28;3.08;;;28.90;95.70;;;;;;5033434;28;20230;-47
2022/05/18 11:36:45;;;;;;;3.35;3.17;;;28.80;94.40;;;;;;5033531;28;20230;-46
2022/05/18 11:39:20;;;;;;;3.25;2.95;;;28.90;96.80;;;;;;5031711;28;20259;-47
2022/05/18 11:42:05;;;;;;;3.83;3.63;;;28.60;96.80;;;;;;5029438;28;20198;-46
2022/05/18 11:44:44;;;;;;;2.63;2.53;;;28.40;94.60;;;;;;5032217;28;20198;-46
2022/05/18 11:47:29;;;;;;;3.30;3.17;;;28.20;96.10;;;;;;5025027;28;20222;-46
2022/05/18 11:50:12;;;;;;;3.08;2.88;;;28.30;94.60;;;;;;5033342;28;20202;-47
2022/05/18 11:52:50;;;;;;;3.97;3.60;;;28.40;94.70;;;;;;5015530;28;20206;-47
2022/05/18 11:55:33;;;;;;;2.95;2.80;;;28.50;94.30;;;;;;5025997;28;20923;-46
2022/05/18 11:58:06;;;;;;;3.17;2.92;;;28.30;95.40;;;;;;5033201;28;20245;-47
2022/05/18 12:00:52;;;;;;;2.42;2.22;;;28.40;95.80;;;;;;5033043;28;20202;-46
2022/05/18 12:03:47;;;;;;;3.60;2.72;;;28.40;96.80;;;;;;5032273;28;20206;-46
2022/05/18 12:06:33;;;;;;;2.88;2.67;;;28.50;97.30;;;;;;4995897;28;20218;-46
2022/05/18 12:09:31;;;;;;;2.97;2.65;;;28.40;96.90;;;;;;5030466;28;20203;-46
2022/05/18 12:12:05;;;;;;;3.17;3.08;;;28.20;95.50;;;;;;5016486;28;20203;-46
2022/05/18 12:14:40;;;;;;;2.67;2.53;;;28.20;95.70;;;;;;5012981;28;20219;-46
2022/05/18 12:17:12;;;;;;;2.72;2.53;;;28.20;94.60;;;;;;5014899;28;20233;-46
2022/05/18 12:19:47;;;;;;;2.72;2.70;;;28.10;94.90;;;;;;5025919;28;20207;-46
2022/05/18 12:22:20;;;;;;;3.60;2.63;;;27.90;95.40;;;;;;5020661;28;20244;-46
2022/05/18 12:24:49;;;;;;;2.60;2.55;;;27.90;95.90;;;;;;5022739;28;20231;-46
2022/05/18 12:27:22;;;;;;;3.40;3.20;;;28.00;95.90;;;;;;5013312;28;21038;-46
2022/05/18 12:29:51;;;;;;;2.53;2.47;;;28.00;95.40;;;;;;5013534;28;20238;-46
2022/05/18 12:32:19;;;;;;;2.78;2.67;;;28.00;94.50;;;;;;5012245;28;20273;-46
2022/05/18 12:34:58;;;;;;;3.28;3.17;;;27.90;95.80;;;;;;5014826;28;20787;-47
2022/05/18 12:37:31;;;;;;;3.47;3.22;;;27.90;97.20;;;;;;5011153;28;20610;-46
2022/05/18 12:40:09;;;;;;;2.90;2.80;;;27.90;95.90;;;;;;5014964;28;20222;-46
2022/05/18 12:42:42;;;;;;;2.38;2.38;;;27.90;94.80;;;;;;5030790;28;20742;-46
2022/05/18 12:45:15;;;;;;;2.20;2.10;;;28.00;95.40;;;;;;5029759;28;20272;-46
2022/05/18 12:47:46;;;;;;;6.88;2.90;;;28.10;94.00;;;;;;5031424;28;20206;-46
2022/05/18 12:50:16;;;;;;;2.75;2.50;;;28.20;95.20;;;;;;5032132;28;20209;-46
2022/05/18 12:52:51;;;;;;;2.80;2.45;;;28.20;94.50;;;;;;5031666;28;20218;-46
2022/05/18 12:55:37;;;;;;;3.28;3.08;;;28.10;92.70;;;;;;5032194;28;20268;-46
2022/05/18 12:58:24;;;;;;;2.90;2.67;;;28.00;94.50;;;;;;5032197;28;20229;-46
2022/05/18 13:01:04;;;;;;;2.63;2.50;;;28.20;94.70;;;;;;5030592;28;20289;-46
2022/05/18 13:03:57;;;;;;;2.20;2.10;;;28.30;93.80;;;;;;5031998;28;20260;-46
2022/05/18 13:06:42;;;;;;;2.80;2.60;;;28.20;93.50;;;;;;5027563;28;20226;-46
2022/05/18 13:09:34;;;;;;;4.95;2.15;;;28.10;96.10;;;;;;5028464;28;20210;-46
2022/05/18 13:12:27;;;;;;;2.42;2.33;;;28.00;95.00;;;;;;5031883;28;20644;-46
2022/05/18 13:15:02;;;;;;;2.15;2.05;;;27.90;94.50;;;;;;5030667;28;20218;-46
2022/05/18 13:17:49;;;;;;;2.63;2.53;;;28.00;95.40;;;;;;5031500;28;20671;-46
2022/05/18 13:20:39;;;;;;;2.80;2.60;;;28.00;95.00;;;;;;5031876;28;20202;-46
2022/05/18 13:23:13;;;;;;;2.38;2.28;;;28.00;95.70;;;;;;5029357;28;20225;-46